Terminal Aerodrome Forecast
Issued by NWS

Home | Current Version | Previous Version | Text Only | Print | Product List | Glossary On
Versions: 1 2 3 4 5 6 7 8 9 10 11 12 13 14 15 16 17 18
000
FTUS41 KBGM 021100
TAFRME
TAF
KRME 021129Z 0212/0312 09005KT P6SM SCT050 OVC120
      TEMPO 0212/0213 4SM -SHRA BR OVC025
     FM021300 26010KT P6SM BKN050
     FM022100 27008KT P6SM BKN040
      TEMPO 0221/0223 3SM TSRA BR OVC025CB
     FM022300 31010KT P6SM SCT015 BKN070
     FM030100 27005KT P6SM BKN015
     FM030600 27005KT P6SM FEW015 BKN040=

USA.gov is the U.S. government's official web portal to all federal, state and local government web resources and services.